Time;durP1;ratioP1;P1;durP2;ratioP2;P2;SDS_P1;SDS_P2;PMS_P1;PMS_P2;Temp;Humidity;BMP_temperature;BMP_pressure;BME280_temperature;BME280_humidity;BME280_pressure;Samples;Min_cycle;Max_cycle;Signal;HPM_P1;HPM_P2
2021/10/16 00:00:34;;;;;;;;;;;7.30;99.90;;;;;;5046577;28;19912;-71
2021/10/16 00:02:59;;;;;;;;;;;7.20;99.90;;;;;;5038870;28;19921;-71
2021/10/16 00:05:24;;;;;;;;;;;7.20;99.90;;;;;;5044520;28;20283;-71
2021/10/16 00:07:50;;;;;;;;;;;7.20;99.90;;;;;;5036781;28;20371;-71
2021/10/16 00:10:15;;;;;;;;;;;7.20;99.90;;;;;;5027809;28;20636;-71
2021/10/16 00:12:41;;;;;;;;;;;7.20;99.90;;;;;;5027857;28;19913;-71
2021/10/16 00:15:06;;;;;;;;;;;7.10;99.90;;;;;;5028069;28;19942;-71
2021/10/16 00:17:32;;;;;;;;;;;7.10;99.90;;;;;;5046067;28;19913;-71
2021/10/16 00:19:57;;;;;;;;;;;7.10;99.90;;;;;;5038400;28;19917;-71
2021/10/16 00:22:24;;;;;;;;;;;7.20;99.90;;;;;;5045569;28;19920;-71
2021/10/16 00:24:50;;;;;;;;;;;7.20;99.90;;;;;;5045899;28;19929;-71
2021/10/16 00:27:16;;;;;;;;;;;7.20;99.90;;;;;;5046745;28;19921;-71
2021/10/16 00:29:42;;;;;;;;;;;7.20;99.90;;;;;;5046862;28;19913;-71
2021/10/16 00:32:07;;;;;;;;;;;7.20;99.90;;;;;;5029690;28;19927;-71
2021/10/16 00:34:32;;;;;;;;;;;7.30;99.90;;;;;;5048506;28;20338;-71
2021/10/16 00:36:58;;;;;;;;;;;7.30;99.90;;;;;;5048058;28;20323;-71
2021/10/16 00:39:23;;;;;;;;;;;7.30;99.90;;;;;;5044926;28;19920;-71
2021/10/16 00:41:49;;;;;;;;;;;7.30;99.90;;;;;;5045044;28;19924;-71
2021/10/16 00:44:14;;;;;;;;;;;7.30;99.90;;;;;;5047638;28;19920;-71
2021/10/16 00:46:40;;;;;;;;;;;7.30;99.90;;;;;;5045482;28;20231;-70
2021/10/16 00:49:05;;;;;;;;;;;7.30;99.90;;;;;;5029737;28;19921;-70
2021/10/16 00:51:31;;;;;;;;;;;7.30;99.90;;;;;;5035315;28;19921;-71
2021/10/16 00:53:56;;;;;;;;;;;7.30;99.90;;;;;;5028427;28;19921;-70
2021/10/16 00:56:21;;;;;;;;;;;7.30;99.90;;;;;;5028690;28;20364;-71
2021/10/16 00:58:47;;;;;;;;;;;7.30;99.90;;;;;;5028431;28;19963;-71
2021/10/16 01:01:12;;;;;;;;;;;7.30;99.90;;;;;;5034453;28;19921;-71
2021/10/16 01:03:38;;;;;;;;;;;7.30;99.90;;;;;;5032924;28;19968;-71
2021/10/16 01:06:03;;;;;;;;;;;7.30;99.90;;;;;;5029966;28;19921;-72
2021/10/16 01:08:29;;;;;;;;;;;7.40;99.90;;;;;;5044313;28;20019;-75
2021/10/16 01:10:56;;;;;;;;;;;7.40;99.90;;;;;;5043153;28;19913;-75
2021/10/16 01:13:21;;;;;;;;;;;7.40;99.90;;;;;;5042506;28;20016;-75
2021/10/16 01:15:50;;;;;;;;;;;7.40;99.90;;;;;;5046692;28;19996;-75
2021/10/16 01:18:15;;;;;;;;;;;7.40;99.90;;;;;;5045990;28;19924;-75
2021/10/16 01:20:45;;;;;;;;;;;7.40;99.90;;;;;;5045907;28;19913;-75
2021/10/16 01:23:11;;;;;;;;;;;7.40;99.90;;;;;;5046879;28;20379;-72
2021/10/16 01:25:37;;;;;;;;;;;7.40;99.90;;;;;;5047507;28;19971;-72
2021/10/16 01:28:02;;;;;;;;;;;7.40;99.90;;;;;;5046915;28;19970;-72
2021/10/16 01:30:29;;;;;;;;;;;7.40;99.90;;;;;;5046824;28;19920;-72
2021/10/16 01:32:54;;;;;;;;;;;7.40;99.90;;;;;;5045357;28;19913;-72
2021/10/16 01:35:20;;;;;;;;;;;7.40;99.90;;;;;;5047942;28;19932;-72
2021/10/16 01:37:47;;;;;;;;;;;7.50;99.90;;;;;;5047911;28;19917;-72
2021/10/16 01:40:12;;;;;;;;;;;7.50;99.90;;;;;;5047166;28;19913;-72
2021/10/16 01:42:42;;;;;;;;;;;7.50;99.90;;;;;;5045535;28;20015;-72
2021/10/16 01:45:15;;;;;;;;;;;7.50;99.90;;;;;;5046638;28;19917;-72
2021/10/16 01:47:44;;;;;;;;;;;7.50;99.90;;;;;;5042749;28;19921;-73
2021/10/16 01:50:09;;;;;;;;;;;7.60;99.90;;;;;;5041873;28;19912;-73
2021/10/16 01:52:35;;;;;;;;;;;7.60;99.90;;;;;;5044155;28;19939;-73
2021/10/16 01:55:00;;;;;;;;;;;7.60;99.90;;;;;;5047091;28;20311;-73
2021/10/16 01:57:25;;;;;;;;;;;7.60;99.90;;;;;;5047750;28;19917;-73
2021/10/16 01:59:51;;;;;;;;;;;7.60;99.90;;;;;;5048686;28;19959;-73
2021/10/16 02:02:16;;;;;;;;;;;7.60;99.90;;;;;;5047571;28;20012;-73
2021/10/16 02:04:42;;;;;;;;;;;7.60;99.90;;;;;;5050074;28;19921;-73
2021/10/16 02:07:07;;;;;;;;;;;7.60;99.90;;;;;;5047343;28;20000;-71
2021/10/16 02:09:33;;;;;;;;;;;7.60;99.90;;;;;;5046422;28;20000;-71
2021/10/16 02:11:58;;;;;;;;;;;7.60;99.90;;;;;;5048456;28;19995;-71
2021/10/16 02:14:23;;;;;;;;;;;7.60;99.90;;;;;;5032120;28;19994;-71
2021/10/16 02:16:49;;;;;;;;;;;7.60;99.90;;;;;;5040416;28;19925;-72
2021/10/16 02:19:14;;;;;;;;;;;7.60;99.90;;;;;;5044789;28;19955;-71
2021/10/16 02:21:40;;;;;;;;;;;7.50;99.90;;;;;;5049485;28;19916;-72
2021/10/16 02:24:05;;;;;;;;;;;7.50;99.90;;;;;;5050862;28;19921;-71
2021/10/16 02:26:30;;;;;;;;;;;7.50;99.90;;;;;;5050342;28;19970;-71
2021/10/16 02:28:56;;;;;;;;;;;7.50;99.90;;;;;;5049213;28;19920;-71
2021/10/16 02:31:21;;;;;;;;;;;7.50;99.90;;;;;;5050479;28;19916;-71
2021/10/16 02:33:47;;;;;;;;;;;7.40;99.90;;;;;;5049280;28;19962;-71
2021/10/16 02:36:13;;;;;;;;;;;7.40;99.90;;;;;;5048900;28;19920;-71
2021/10/16 02:38:38;;;;;;;;;;;7.40;99.90;;;;;;5049212;28;20435;-72
2021/10/16 02:41:04;;;;;;;;;;;7.30;99.90;;;;;;5048137;28;19999;-71
2021/10/16 02:43:29;;;;;;;;;;;7.30;99.90;;;;;;5032559;28;20003;-71
2021/10/16 02:45:55;;;;;;;;;;;7.30;99.90;;;;;;5047767;28;19917;-72
2021/10/16 02:48:20;;;;;;;;;;;7.30;99.90;;;;;;5039977;28;20035;-72
2021/10/16 02:50:45;;;;;;;;;;;7.30;99.90;;;;;;5049276;28;19964;-72
2021/10/16 02:53:11;;;;;;;;;;;7.30;99.90;;;;;;5046405;28;19974;-72
2021/10/16 02:55:37;;;;;;;;;;;7.30;99.90;;;;;;5044472;28;19923;-72
2021/10/16 02:58:02;;;;;;;;;;;7.40;99.90;;;;;;5030174;28;19917;-71
2021/10/16 03:00:27;;;;;;;;;;;7.40;99.90;;;;;;5047789;28;19916;-71
2021/10/16 03:02:53;;;;;;;;;;;7.30;99.90;;;;;;5047696;28;19913;-71
2021/10/16 03:05:18;;;;;;;;;;;7.40;99.90;;;;;;5048263;28;20338;-71
2021/10/16 03:07:44;;;;;;;;;;;7.30;99.90;;;;;;5030239;28;20428;-72
2021/10/16 03:10:09;;;;;;;;;;;7.30;99.90;;;;;;5046620;28;19921;-71
2021/10/16 03:12:35;;;;;;;;;;;7.30;99.90;;;;;;5048666;28;20302;-72
2021/10/16 03:15:00;;;;;;;;;;;7.30;99.90;;;;;;5048002;28;19917;-71
2021/10/16 03:17:26;;;;;;;;;;;7.30;99.90;;;;;;5047563;28;19917;-71
2021/10/16 03:19:51;;;;;;;;;;;7.20;99.90;;;;;;5048308;28;20045;-72
2021/10/16 03:22:16;;;;;;;;;;;7.20;99.90;;;;;;5049409;28;19917;-72
2021/10/16 03:24:42;;;;;;;;;;;7.20;99.90;;;;;;5046665;28;20599;-72
2021/10/16 03:27:07;;;;;;;;;;;7.20;99.90;;;;;;5047514;28;19927;-73
2021/10/16 03:29:33;;;;;;;;;;;7.10;99.90;;;;;;5050017;28;19909;-72
2021/10/16 03:31:58;;;;;;;;;;;7.10;99.90;;;;;;5046707;28;19924;-73
2021/10/16 03:34:26;;;;;;;;;;;7.10;99.90;;;;;;5049589;28;19975;-72
2021/10/16 03:36:51;;;;;;;;;;;7.10;99.90;;;;;;5048620;28;19920;-73
2021/10/16 03:39:17;;;;;;;;;;;7.00;99.90;;;;;;5039474;28;19913;-72
2021/10/16 03:41:42;;;;;;;;;;;7.00;99.90;;;;;;5045202;28;19913;-72
2021/10/16 03:44:08;;;;;;;;;;;7.00;99.90;;;;;;5049300;28;19936;-73
2021/10/16 03:46:33;;;;;;;;;;;7.00;99.90;;;;;;5048618;28;19912;-72
2021/10/16 03:48:59;;;;;;;;;;;6.90;99.90;;;;;;5048828;28;19920;-73
2021/10/16 03:51:24;;;;;;;;;;;6.90;99.90;;;;;;5048419;28;19939;-72
2021/10/16 03:53:50;;;;;;;;;;;6.90;99.90;;;;;;5048951;28;19913;-72
2021/10/16 03:56:15;;;;;;;;;;;6.90;99.90;;;;;;5045301;28;19971;-72
2021/10/16 03:58:40;;;;;;;;;;;6.90;99.90;;;;;;5049123;28;19935;-72
2021/10/16 04:01:06;;;;;;;;;;;6.80;99.90;;;;;;5043846;28;19929;-72
2021/10/16 04:03:34;;;;;;;;;;;6.80;99.90;;;;;;5046788;28;19913;-72
2021/10/16 04:06:00;;;;;;;;;;;6.80;99.90;;;;;;5047754;28;19993;-73
2021/10/16 04:08:25;;;;;;;;;;;6.80;99.90;;;;;;5047861;28;20336;-72
2021/10/16 04:10:51;;;;;;;;;;;6.80;99.90;;;;;;5044922;28;19917;-72
2021/10/16 04:13:16;;;;;;;;;;;6.80;99.90;;;;;;5048191;28;20529;-72
2021/10/16 04:15:42;;;;;;;;;;;6.80;99.90;;;;;;5046368;28;19916;-72
2021/10/16 04:18:07;;;;;;;;;;;6.80;99.90;;;;;;5047586;28;20295;-71
2021/10/16 04:20:33;;;;;;;;;;;6.80;99.90;;;;;;5045494;28;19913;-70
2021/10/16 04:22:58;;;;;;;;;;;6.70;99.90;;;;;;5045913;28;19924;-70
2021/10/16 04:25:24;;;;;;;;;;;6.70;99.90;;;;;;5047368;28;19916;-70
2021/10/16 04:27:50;;;;;;;;;;;6.60;99.90;;;;;;5093947;22;20027;-72
2021/10/16 04:30:15;;;;;;;;;;;6.60;99.90;;;;;;5086596;28;19991;-72
2021/10/16 04:32:41;;;;;;;;;;;6.60;99.90;;;;;;5085878;28;19955;-72
2021/10/16 04:35:07;;;;;;;;;;;6.60;99.90;;;;;;5088059;28;19977;-73
2021/10/16 04:37:34;;;;;;;;;;;6.60;99.90;;;;;;5087585;28;19995;-72
2021/10/16 04:39:59;;;;;;;;;;;6.60;99.90;;;;;;5088297;28;19916;-72
2021/10/16 04:42:25;;;;;;;;;;;6.70;99.90;;;;;;5087599;28;20003;-72
2021/10/16 04:44:50;;;;;;;;;;;6.60;99.90;;;;;;5069243;28;19924;-73
2021/10/16 04:47:16;;;;;;;;;;;6.70;99.90;;;;;;5068533;28;20341;-73
2021/10/16 04:49:41;;;;;;;;;;;6.70;99.90;;;;;;5069605;28;19957;-75
2021/10/16 04:52:07;;;;;;;;;;;6.70;99.90;;;;;;5067388;28;19916;-73
2021/10/16 04:54:32;;;;;;;;;;;6.70;99.90;;;;;;5068509;28;19961;-73
2021/10/16 04:56:58;;;;;;;;;;;6.70;99.90;;;;;;5087807;28;19909;-73
2021/10/16 04:59:24;;;;;;;;;;;6.70;99.90;;;;;;5086558;28;19924;-73
2021/10/16 05:01:50;;;;;;;;;;;6.70;99.90;;;;;;5086036;28;19920;-72
2021/10/16 05:04:15;;;;;;;;;;;6.60;99.90;;;;;;5085406;28;20332;-72
2021/10/16 05:06:41;;;;;;;;;;;6.60;99.90;;;;;;5088155;28;19962;-72
2021/10/16 05:09:06;;;;;;;;;;;6.60;99.90;;;;;;5085927;28;19920;-73
2021/10/16 05:11:32;;;;;;;;;;;6.60;99.90;;;;;;5086602;28;19919;-73
2021/10/16 05:13:57;;;;;;;;;;;6.60;99.90;;;;;;5086328;28;19920;-73
2021/10/16 05:16:22;;;;;;;;;;;6.50;99.90;;;;;;5088254;28;20323;-73
2021/10/16 05:18:48;;;;;;;;;;;6.50;99.90;;;;;;5086149;28;20359;-73
2021/10/16 05:21:13;;;;;;;;;;;6.50;99.90;;;;;;5067413;28;19967;-73
2021/10/16 05:23:39;;;;;;;;;;;6.40;99.90;;;;;;5087062;28;19912;-73
2021/10/16 05:26:04;;;;;;;;;;;6.40;99.90;;;;;;5084196;28;20382;-73
2021/10/16 05:28:30;;;;;;;;;;;6.40;99.90;;;;;;5089113;28;20271;-73
2021/10/16 05:30:55;;;;;;;;;;;6.40;99.90;;;;;;5089998;28;19922;-73
2021/10/16 05:33:21;;;;;;;;;;;6.30;99.90;;;;;;5090957;28;19951;-73
2021/10/16 05:35:46;;;;;;;;;;;6.30;99.90;;;;;;5092400;28;19912;-73
2021/10/16 05:38:12;;;;;;;;;;;6.30;99.90;;;;;;5089401;28;19964;-73
2021/10/16 05:40:37;;;;;;;;;;;6.30;99.90;;;;;;5090461;28;19977;-73
2021/10/16 05:43:03;;;;;;;;;;;6.30;99.90;;;;;;5073472;28;20302;-73
2021/10/16 05:45:28;;;;;;;;;;;6.30;99.90;;;;;;5092201;28;19954;-73
2021/10/16 05:47:54;;;;;;;;;;;6.30;99.90;;;;;;5089619;28;19916;-73
2021/10/16 05:50:19;;;;;;;;;;;6.30;99.90;;;;;;5090557;28;19958;-72
2021/10/16 05:52:45;;;;;;;;;;;6.30;99.90;;;;;;5073083;28;20000;-72
2021/10/16 05:55:10;;;;;;;;;;;6.30;99.90;;;;;;5089625;28;19920;-73
2021/10/16 05:57:35;;;;;;;;;;;6.40;99.90;;;;;;5091249;28;20342;-73
2021/10/16 06:00:03;;;;;;;;;;;6.40;99.90;;;;;;5090053;28;19931;-73
2021/10/16 06:02:28;;;;;;;;;;;6.40;99.90;;;;;;5087666;28;19954;-73
2021/10/16 06:04:53;;;;;;;;;;;6.40;99.90;;;;;;5091297;28;19916;-73
2021/10/16 06:07:19;;;;;;;;;;;6.40;99.90;;;;;;5072744;28;19916;-73
2021/10/16 06:09:44;;;;;;;;;;;6.50;99.90;;;;;;5088404;28;20279;-73
2021/10/16 06:12:10;;;;;;;;;;;6.50;99.90;;;;;;5088799;28;19928;-72
2021/10/16 06:14:35;;;;;;;;;;;6.50;99.90;;;;;;5091019;28;20362;-71
2021/10/16 06:17:01;;;;;;;;;;;6.60;99.90;;;;;;5083191;28;19916;-72
2021/10/16 06:19:26;;;;;;;;;;;6.60;99.90;;;;;;5088415;28;19912;-72
2021/10/16 06:21:51;;;;;;;;;;;6.60;99.90;;;;;;5086818;28;19931;-72
2021/10/16 06:24:17;;;;;;;;;;;6.60;99.90;;;;;;5089248;28;19920;-71
2021/10/16 06:26:42;;;;;;;;;;;6.70;99.90;;;;;;5071584;28;20335;-72
2021/10/16 06:29:08;;;;;;;;;;;6.70;99.90;;;;;;5072353;28;19916;-72
2021/10/16 06:31:34;;;;;;;;;;;6.80;99.90;;;;;;5090557;28;20053;-74
2021/10/16 06:34:00;;;;;;;;;;;6.80;99.90;;;;;;5072230;28;20003;-74
2021/10/16 06:36:25;;;;;;;;;;;6.80;99.90;;;;;;5090498;28;19999;-74
2021/10/16 06:38:50;;;;;;;;;;;6.90;99.90;;;;;;5088949;28;20335;-73
2021/10/16 06:41:16;;;;;;;;;;;7.00;99.90;;;;;;5090039;28;20412;-73
2021/10/16 06:43:41;;;;;;;;;;;7.00;99.90;;;;;;5089294;28;19923;-73
2021/10/16 06:46:07;;;;;;;;;;;7.00;99.90;;;;;;5088551;28;20576;-73
2021/10/16 06:48:32;;;;;;;;;;;7.00;99.90;;;;;;5086911;28;19955;-72
2021/10/16 06:50:58;;;;;;;;;;;7.10;99.90;;;;;;5087170;28;19916;-73
2021/10/16 06:53:23;;;;;;;;;;;7.10;99.90;;;;;;5074133;28;20270;-74
2021/10/16 06:55:48;;;;;;;;;;;7.10;99.90;;;;;;5089157;28;20290;-73
2021/10/16 06:58:14;;;;;;;;;;;7.20;99.90;;;;;;5071984;28;19947;-74
2021/10/16 07:00:39;;;;;;;;;;;7.20;99.90;;;;;;5090332;28;20312;-74
2021/10/16 07:03:07;;;;;;;;;;;7.30;99.90;;;;;;5091670;28;19912;-74
2021/10/16 07:05:32;;;;;;;;;;;7.40;99.90;;;;;;5093171;28;19916;-73
2021/10/16 07:07:58;;;;;;;;;;;7.40;99.90;;;;;;5091428;28;19927;-75
2021/10/16 07:10:23;;;;;;;;;;;7.40;99.90;;;;;;5092135;28;19948;-76
2021/10/16 07:12:49;;;;;;;;;;;7.50;99.90;;;;;;5074974;28;19916;-75
2021/10/16 07:15:14;;;;;;;;;;;7.60;99.90;;;;;;5071064;28;19916;-75
2021/10/16 07:17:40;;;;;;;;;;;7.60;99.90;;;;;;5088321;28;19912;-75
2021/10/16 07:20:05;;;;;;;;;;;7.70;99.90;;;;;;5070757;28;20217;-77
2021/10/16 07:22:31;;;;;;;;;;;7.80;99.90;;;;;;5067866;28;19912;-75
2021/10/16 07:24:56;;;;;;;;;;;7.80;99.90;;;;;;5087544;28;19923;-74
2021/10/16 07:27:22;;;;;;;;;;;7.90;99.90;;;;;;5088409;28;19924;-74
2021/10/16 07:29:47;;;;;;;;;;;7.90;99.90;;;;;;5088140;28;20305;-74
2021/10/16 07:32:14;;;;;;;;;;;8.00;99.90;;;;;;5068471;28;19920;-74
2021/10/16 07:34:40;;;;;;;;;;;8.00;99.90;;;;;;5088783;28;20003;-76
2021/10/16 07:37:05;;;;;;;;;;;8.00;99.90;;;;;;5089699;28;20410;-76
2021/10/16 07:39:30;;;;;;;;;;;8.10;99.90;;;;;;5084921;28;19924;-74
2021/10/16 07:41:56;;;;;;;;;;;8.10;99.90;;;;;;5083178;28;19912;-72
2021/10/16 07:44:21;;;;;;;;;;;8.10;99.90;;;;;;5082491;28;20043;-72
2021/10/16 07:46:47;;;;;;;;;;;8.10;99.90;;;;;;5069445;28;20420;-72
2021/10/16 07:49:12;;;;;;;;;;;8.10;99.90;;;;;;5068573;28;19915;-72
2021/10/16 07:51:38;;;;;;;;;;;8.10;99.90;;;;;;5086411;28;19923;-71
2021/10/16 07:54:04;;;;;;;;;;;8.20;99.90;;;;;;5069314;28;19915;-72
2021/10/16 07:56:29;;;;;;;;;;;8.20;99.90;;;;;;5086645;28;19955;-72
2021/10/16 07:58:55;;;;;;;;;;;8.30;99.90;;;;;;5088146;28;19916;-72
2021/10/16 08:01:20;;;;;;;;;;;8.30;99.90;;;;;;5086253;28;20410;-72
2021/10/16 08:03:45;;;;;;;;;;;8.30;99.90;;;;;;5088566;28;20407;-72
2021/10/16 08:06:11;;;;;;;;;;;8.30;99.90;;;;;;5087845;28;20011;-72
2021/10/16 08:08:36;;;;;;;;;;;8.30;99.90;;;;;;5088573;28;19955;-72
2021/10/16 08:11:02;;;;;;;;;;;8.50;99.90;;;;;;5086880;28;19916;-72
2021/10/16 08:13:29;;;;;;;;;;;8.60;99.90;;;;;;5087997;28;20320;-72
2021/10/16 08:15:55;;;;;;;;;;;8.70;99.90;;;;;;5088612;28;19912;-72
2021/10/16 08:18:20;;;;;;;;;;;8.90;99.90;;;;;;5070229;28;19919;-72
2021/10/16 08:20:46;;;;;;;;;;;9.00;99.90;;;;;;5087301;28;19923;-72
2021/10/16 08:23:11;;;;;;;;;;;9.10;99.90;;;;;;5070008;28;20275;-72
2021/10/16 08:25:37;;;;;;;;;;;9.20;99.90;;;;;;5088435;28;20011;-71
2021/10/16 08:28:09;;;;;;;;;;;9.20;99.90;;;;;;5088406;28;19943;-72
2021/10/16 08:30:35;;;;;;;;;;;9.30;99.90;;;;;;5086949;28;19912;-72
2021/10/16 08:33:00;;;;;;;;;;;9.40;99.90;;;;;;5087579;28;20324;-71
2021/10/16 08:35:26;;;;;;;;;;;9.40;99.90;;;;;;5087937;28;19915;-71
2021/10/16 08:37:51;;;;;;;;;;;9.50;99.90;;;;;;5088825;28;19916;-72
2021/10/16 08:40:17;;;;;;;;;;;9.50;99.90;;;;;;5088486;28;20018;-72
2021/10/16 08:42:42;;;;;;;;;;;9.60;99.90;;;;;;5087104;28;19916;-72
2021/10/16 08:45:08;;;;;;;;;;;9.60;99.90;;;;;;5087752;28;19920;-72
2021/10/16 08:47:37;;;;;;;;;;;9.70;99.90;;;;;;5087862;28;19916;-72
2021/10/16 08:50:04;;;;;;;;;;;9.70;99.90;;;;;;5086910;28;19961;-72
2021/10/16 08:52:30;;;;;;;;;;;9.60;99.90;;;;;;5087552;28;19913;-72
2021/10/16 08:54:56;;;;;;;;;;;9.60;99.90;;;;;;5088063;28;19919;-73
2021/10/16 08:57:21;;;;;;;;;;;9.60;99.90;;;;;;5068234;28;19912;-73
2021/10/16 08:59:47;;;;;;;;;;;9.50;99.90;;;;;;5068627;28;20298;-72
2021/10/16 09:02:12;;;;;;;;;;;9.50;99.90;;;;;;5085421;28;19958;-73
2021/10/16 09:04:38;;;;;;;;;;;9.60;99.90;;;;;;5087332;28;19931;-72
2021/10/16 09:07:23;;;;;;;;;;;9.60;99.90;;;;;;5069584;28;19909;-73
2021/10/16 09:09:49;;;;;;;;;;;9.70;99.90;;;;;;5087345;28;20465;-72
2021/10/16 09:12:15;;;;;;;;;;;9.80;99.90;;;;;;5069088;28;19916;-73
2021/10/16 09:14:45;;;;;;;;;;;9.90;99.90;;;;;;5069429;28;19912;-73
2021/10/16 09:17:12;;;;;;;;;;;9.90;99.90;;;;;;5069337;28;19908;-73
2021/10/16 09:19:38;;;;;;;;;;;10.10;99.90;;;;;;5085629;28;19912;-71
2021/10/16 09:22:06;;;;;;;;;;;10.20;99.90;;;;;;5069390;28;20405;-72
2021/10/16 09:24:36;;;;;;;;;;;10.30;99.90;;;;;;5069247;28;20405;-73
2021/10/16 09:27:05;;;;;;;;;;;10.40;99.90;;;;;;5087449;28;19916;-73
2021/10/16 09:29:32;;;;;;;;;;;10.50;99.90;;;;;;5086724;28;19969;-73
2021/10/16 09:32:00;;;;;;;;;;;10.70;99.90;;;;;;5087291;28;19989;-71
2021/10/16 09:34:30;;;;;;;;;;;10.80;99.60;;;;;;5086194;28;19916;-73
2021/10/16 09:37:03;;;;;;;;;;;10.80;99.20;;;;;;5087167;28;19921;-71
2021/10/16 09:39:28;;;;;;;;;;;10.90;99.60;;;;;;5086941;28;19947;-72
2021/10/16 09:41:53;;;;;;;;;;;11.00;99.10;;;;;;5086426;28;20332;-72
2021/10/16 09:44:27;;;;;;;;;;;11.10;99.20;;;;;;5087853;28;19973;-72
2021/10/16 09:47:01;;;;;;;;;;;11.10;98.70;;;;;;5087272;28;20402;-72
2021/10/16 09:49:27;;;;;;;;;;;11.10;98.20;;;;;;5085522;28;19969;-72
2021/10/16 09:51:53;;;;;;;;;;;11.10;98.70;;;;;;5068961;28;20363;-73
2021/10/16 09:54:18;;;;;;;;;;;11.20;99.00;;;;;;5087854;28;19958;-72
2021/10/16 09:56:44;;;;;;;;;;;11.30;99.00;;;;;;5086668;28;20027;-72
2021/10/16 09:59:13;;;;;;;;;;;11.40;98.60;;;;;;5086240;28;19960;-72
2021/10/16 10:01:38;;;;;;;;;;;11.40;98.50;;;;;;5086388;28;20006;-72
2021/10/16 10:04:04;;;;;;;;;;;11.30;98.10;;;;;;5087733;28;20023;-72
2021/10/16 10:06:29;;;;;;;;;;;11.30;98.30;;;;;;5086612;28;19991;-72
2021/10/16 10:08:56;;;;;;;;;;;11.30;98.60;;;;;;5086462;28;19938;-73
2021/10/16 10:11:21;;;;;;;;;;;11.30;98.90;;;;;;5086610;28;20023;-73
2021/10/16 10:13:49;;;;;;;;;;;11.30;99.10;;;;;;5088392;28;19999;-73
2021/10/16 10:16:15;;;;;;;;;;;11.30;99.40;;;;;;5091101;28;19947;-72
2021/10/16 10:18:59;;;;;;;;;;;11.20;99.50;;;;;;5090451;28;20351;-72
2021/10/16 10:21:29;;;;;;;;;;;11.30;99.80;;;;;;5091020;28;20014;-73
2021/10/16 10:23:58;;;;;;;;;;;11.20;99.90;;;;;;5090354;28;19916;-72
2021/10/16 10:26:27;;;;;;;;;;;11.20;99.90;;;;;;5071740;28;20355;-72
2021/10/16 10:28:57;;;;;;;;;;;11.20;99.90;;;;;;5092927;22;19979;-73
2021/10/16 10:31:42;;;;;;;;;;;11.20;99.80;;;;;;5067465;28;20358;-73
2021/10/16 10:34:10;;;;;;;;;;;11.30;99.80;;;;;;5061419;28;19959;-70
2021/10/16 10:36:55;;;;;;;;;;;11.40;99.70;;;;;;5060435;28;19912;-70
2021/10/16 10:39:30;;;;;;;;;;;11.40;99.70;;;;;;5044836;28;19917;-69
2021/10/16 10:41:56;;;;;;;;;;;11.50;99.40;;;;;;5039745;28;20004;-74
2021/10/16 10:44:40;;;;;;;;;;;11.50;99.20;;;;;;5041383;28;20009;-73
2021/10/16 10:47:25;;;;;;;;;;;11.60;99.30;;;;;;5039199;28;19952;-73
2021/10/16 10:49:51;;;;;;;;;;;11.80;99.20;;;;;;5040548;28;19917;-73
2021/10/16 10:52:17;;;;;;;;;;;11.90;98.70;;;;;;5056710;28;20438;-73
2021/10/16 10:55:02;;;;;;;;;;;12.10;98.60;;;;;;5041036;28;19920;-74
2021/10/16 10:57:48;;;;;;;;;;;12.20;98.50;;;;;;5046748;28;19966;-73
2021/10/16 11:00:15;;;;;;;;;;;12.30;97.90;;;;;;5039525;28;19917;-75
2021/10/16 11:02:41;;;;;;;;;;;12.30;98.10;;;;;;5038945;28;19913;-74
2021/10/16 11:05:34;;;;;;;;;;;12.40;97.90;;;;;;5041673;28;19939;-73
2021/10/16 11:08:09;;;;;;;;;;;12.50;97.50;;;;;;5040757;28;20026;-74
2021/10/16 11:10:34;;;;;;;;;;;12.60;97.50;;;;;;5038649;28;19913;-73
2021/10/16 11:13:13;;;;;;;;;;;12.70;97.10;;;;;;5039873;28;19920;-73
2021/10/16 11:15:41;;;;;;;;;;;12.70;96.60;;;;;;5040704;28;19935;-70
2021/10/16 11:18:10;;;;;;;;;;;12.70;96.70;;;;;;5041251;28;20394;-69
2021/10/16 11:20:35;;;;;;;;;;;12.80;96.80;;;;;;5040164;28;20026;-70
2021/10/16 11:23:01;;;;;;;;;;;12.90;96.80;;;;;;5041079;28;20020;-72
2021/10/16 11:25:29;;;;;;;;;;;12.90;96.30;;;;;;5039903;28;19917;-69
2021/10/16 11:28:08;;;;;;;;;;;12.90;95.50;;;;;;5039582;28;20354;-66
2021/10/16 11:30:35;;;;;;;;;;;12.90;94.50;;;;;;5039764;28;20008;-67
2021/10/16 11:33:03;;;;;;;;;;;13.10;96.60;;;;;;5040394;28;19912;-68
2021/10/16 11:35:28;;;;;;;;;;;13.40;96.90;;;;;;5039735;28;19923;-67
2021/10/16 11:37:54;;;;;;;;;;;13.60;94.80;;;;;;5039712;28;20559;-68
2021/10/16 11:40:21;;;;;;;;;;;13.70;93.20;;;;;;5039486;28;20403;-68
2021/10/16 11:42:54;;;;;;;;;;;13.60;94.00;;;;;;5039266;28;20359;-69
2021/10/16 11:45:20;;;;;;;;;;;13.40;92.30;;;;;;5059059;28;19956;-68
2021/10/16 11:47:50;;;;;;;;;;;13.10;91.60;;;;;;5039674;28;19919;-68
2021/10/16 11:50:17;;;;;;;;;;;12.90;91.80;;;;;;5038897;28;20003;-68
2021/10/16 11:52:44;;;;;;;;;;;12.70;92.40;;;;;;5040539;28;19913;-68
2021/10/16 11:55:14;;;;;;;;;;;12.70;91.60;;;;;;5040268;28;20504;-70
2021/10/16 11:57:40;;;;;;;;;;;12.60;92.00;;;;;;5039651;28;20359;-69
2021/10/16 12:00:15;;;;;;;;;;;12.70;92.70;;;;;;5040118;28;19963;-69
2021/10/16 12:02:41;;;;;;;;;;;12.80;92.30;;;;;;5037586;28;20339;-69
2021/10/16 12:05:07;;;;;;;;;;;12.90;91.20;;;;;;5062912;28;19959;-69
2021/10/16 12:07:32;;;;;;;;;;;13.00;90.00;;;;;;5039529;28;19909;-69
2021/10/16 12:10:17;;;;;;;;;;;13.00;89.60;;;;;;5039452;28;20396;-70
2021/10/16 12:12:56;;;;;;;;;;;13.10;90.20;;;;;;5038857;28;19923;-70
2021/10/16 12:15:22;;;;;;;;;;;13.10;90.50;;;;;;5039436;28;19921;-70
2021/10/16 12:17:47;;;;;;;;;;;13.20;91.70;;;;;;5038023;28;20069;-70
2021/10/16 12:20:13;;;;;;;;;;;13.20;92.10;;;;;;5038571;28;19917;-71
2021/10/16 12:22:54;;;;;;;;;;;13.20;92.30;;;;;;5039935;28;20003;-70
2021/10/16 12:25:20;;;;;;;;;;;13.30;92.40;;;;;;5040598;28;19932;-70
2021/10/16 12:27:57;;;;;;;;;;;13.30;92.60;;;;;;5038079;28;19921;-70
2021/10/16 12:30:22;;;;;;;;;;;13.30;92.90;;;;;;5039475;28;19924;-69
2021/10/16 12:33:00;;;;;;;;;;;13.20;92.70;;;;;;5054528;28;19909;-69
2021/10/16 12:35:26;;;;;;;;;;;13.20;93.10;;;;;;5038814;28;20035;-69
2021/10/16 12:37:58;;;;;;;;;;;13.20;93.00;;;;;;5038738;28;20430;-70
2021/10/16 12:40:34;;;;;;;;;;;13.10;92.90;;;;;;5039803;28;19924;-69
2021/10/16 12:43:00;;;;;;;;;;;13.10;92.80;;;;;;5040536;28;19932;-69
2021/10/16 12:45:36;;;;;;;;;;;13.10;92.80;;;;;;5059500;28;20264;-69
2021/10/16 12:48:35;;;;;;;;;;;13.10;93.00;;;;;;5037938;28;19948;-69
2021/10/16 12:51:02;;;;;;;;;;;13.10;93.00;;;;;;5032892;28;19913;-68
2021/10/16 12:53:47;;;;;;;;;;;13.20;93.30;;;;;;5037084;28;20027;-70
2021/10/16 12:56:13;;;;;;;;;;;13.20;93.20;;;;;;5039080;28;19990;-69
2021/10/16 12:58:39;;;;;;;;;;;13.30;93.30;;;;;;5039420;28;20410;-68
2021/10/16 13:01:04;;;;;;;;;;;13.20;93.20;;;;;;5039313;28;19945;-68
2021/10/16 13:03:29;;;;;;;;;;;13.20;93.00;;;;;;5038664;28;19925;-69
2021/10/16 13:05:57;;;;;;;;;;;13.20;93.00;;;;;;5038874;28;20363;-69
2021/10/16 13:08:23;;;;;;;;;;;13.20;93.30;;;;;;5037986;28;19921;-69
2021/10/16 13:10:48;;;;;;;;;;;13.20;93.00;;;;;;5037658;28;19924;-69
2021/10/16 13:13:14;;;;;;;;;;;13.10;92.90;;;;;;5038203;28;19916;-67
2021/10/16 13:15:40;;;;;;;;;;;13.10;92.90;;;;;;5038836;28;19939;-67
2021/10/16 13:18:06;;;;;;;;;;;13.00;92.80;;;;;;5037554;28;19913;-68
2021/10/16 13:20:31;;;;;;;;;;;12.90;92.80;;;;;;5038472;28;19912;-68
2021/10/16 13:22:57;;;;;;;;;;;12.80;93.00;;;;;;5043098;28;19917;-68
2021/10/16 13:25:23;;;;;;;;;;;12.70;92.90;;;;;;5041287;28;19920;-68
2021/10/16 13:27:48;;;;;;;;;;;12.70;93.20;;;;;;5037035;28;19921;-68
2021/10/16 13:30:17;;;;;;;;;;;12.60;93.40;;;;;;5038523;28;19917;-69
2021/10/16 13:32:43;;;;;;;;;;;12.60;93.40;;;;;;5038776;28;19967;-68
2021/10/16 13:35:08;;;;;;;;;;;12.60;93.70;;;;;;5038717;28;19992;-69
2021/10/16 13:37:34;;;;;;;;;;;12.60;93.70;;;;;;5039111;28;19921;-69
2021/10/16 13:40:03;;;;;;;;;;;12.50;93.90;;;;;;5038191;28;19913;-68
2021/10/16 13:42:29;;;;;;;;;;;12.50;94.00;;;;;;5038887;28;20001;-68
2021/10/16 13:44:54;;;;;;;;;;;12.50;94.20;;;;;;5038668;28;19917;-68
2021/10/16 13:47:22;;;;;;;;;;;12.50;94.10;;;;;;5059656;28;19928;-68
2021/10/16 13:49:48;;;;;;;;;;;12.50;94.20;;;;;;5040874;28;19924;-67
2021/10/16 13:52:13;;;;;;;;;;;12.50;94.30;;;;;;5040557;28;19913;-68
2021/10/16 13:54:38;;;;;;;;;;;12.50;94.40;;;;;;5044340;28;19921;-66
2021/10/16 13:57:04;;;;;;;;;;;12.40;94.40;;;;;;5043430;28;19914;-67
2021/10/16 13:59:29;;;;;;;;;;;12.50;94.10;;;;;;5043420;28;19924;-68
2021/10/16 14:01:55;;;;;;;;;;;12.50;93.80;;;;;;5042827;28;19920;-67
2021/10/16 14:04:21;;;;;;;;;;;12.40;93.80;;;;;;5044057;28;19940;-67
2021/10/16 14:06:47;;;;;;;;;;;12.40;94.00;;;;;;5044217;28;19923;-67
2021/10/16 14:09:12;;;;;;;;;;;12.40;94.00;;;;;;5042422;28;20527;-68
2021/10/16 14:11:37;;;;;;;;;;;12.50;94.10;;;;;;5042904;28;19928;-68
2021/10/16 14:14:03;;;;;;;;;;;12.40;93.70;;;;;;5043834;28;19920;-68
2021/10/16 14:16:28;;;;;;;;;;;12.40;93.70;;;;;;5043735;28;19974;-69
2021/10/16 14:18:54;;;;;;;;;;;12.30;93.60;;;;;;5043041;28;20015;-68
2021/10/16 14:21:21;;;;;;;;;;;12.30;93.70;;;;;;5044001;28;19921;-68
2021/10/16 14:23:46;;;;;;;;;;;12.30;93.60;;;;;;5043933;28;19928;-67